KGNT/GNT METAR and TAF weather

Enter ICAO airport designator
Station Type Date Time Source
KGNT METAR 2021/01/20 21:35 UTC NOAA

KGNT 202135Z AUTO 00000KT 10SM SCT070 03/M01 A3024 RMK AO2 T00251015


Station Type Date Time Source
KGNT Decoded METAR 2021/01/20 21:35 UTC NOAA

GRANTS-MILAN MUNICIPAL AIRPORT , NM, United States (KGNT) 35-10N 107-54W 1987M
Jan 20, 2021 - 04:35 PM EST / 2021.01.20 2135 UTC
Wind: Calm:0
Visibility: 10 mile(s):0
Sky conditions: partly cloudy
Temperature: 36.5 F (2.5 C)
Dew Point: 29.3 F (-1.5 C)
Relative Humidity: 74%
Pressure (altimeter): 30.24 in. Hg (1024 hPa)
ob: KGNT 202135Z AUTO 00000KT 10SM SCT070 03/M01 A3024 RMK AO2 T00251015
cycle: 21

Station Type Date Time Source
KGNT TAF UTC NOAA

Error!

Example: see airport list